sensor_id;sensor_type;location;lat;lon;timestamp;pressure;altitude;pressure_sealevel;temperature;humidity
32197;BME280;18697;42.770;23.400;2024-03-06T00:02:06;95360.63;;;7.98;71.02
32197;BME280;18697;42.770;23.400;2024-03-06T00:04:32;95360.94;;;8.00;70.87
32197;BME280;18697;42.770;23.400;2024-03-06T00:06:58;95364.72;;;7.63;70.87
32197;BME280;18697;42.770;23.400;2024-03-06T00:09:24;95375.44;;;7.61;71.10
32197;BME280;18697;42.770;23.400;2024-03-06T00:11:52;95368.06;;;7.57;71.69
32197;BME280;18697;42.770;23.400;2024-03-06T00:14:18;95370.81;;;7.57;71.59
32197;BME280;18697;42.770;23.400;2024-03-06T00:16:43;95365.88;;;7.52;72.03
32197;BME280;18697;42.770;23.400;2024-03-06T00:19:09;95357.66;;;7.40;72.04
32197;BME280;18697;42.770;23.400;2024-03-06T00:21:35;95365.19;;;7.39;71.81
32197;BME280;18697;42.770;23.400;2024-03-06T00:24:03;95370.53;;;7.34;72.25
32197;BME280;18697;42.770;23.400;2024-03-06T00:26:29;95355.75;;;7.28;72.29
32197;BME280;18697;42.770;23.400;2024-03-06T00:28:55;95370.41;;;7.37;72.57
32197;BME280;18697;42.770;23.400;2024-03-06T00:31:20;95369.63;;;7.37;71.61
32197;BME280;18697;42.770;23.400;2024-03-06T00:33:45;95369.69;;;7.24;71.60
32197;BME280;18697;42.770;23.400;2024-03-06T00:36:11;95361.75;;;7.13;72.08
32197;BME280;18697;42.770;23.400;2024-03-06T00:38:36;95372.56;;;7.20;71.93
32197;BME280;18697;42.770;23.400;2024-03-06T00:41:02;95373.00;;;7.19;72.14
32197;BME280;18697;42.770;23.400;2024-03-06T00:43:27;95370.00;;;7.26;72.02
32197;BME280;18697;42.770;23.400;2024-03-06T00:45:53;95362.94;;;7.25;71.78
32197;BME280;18697;42.770;23.400;2024-03-06T00:48:18;95373.09;;;7.28;71.73
32197;BME280;18697;42.770;23.400;2024-03-06T00:50:45;95367.28;;;6.79;73.00
32197;BME280;18697;42.770;23.400;2024-03-06T00:53:10;95383.59;;;6.86;72.75
32197;BME280;18697;42.770;23.400;2024-03-06T00:55:36;95377.22;;;6.76;72.95
32197;BME280;18697;42.770;23.400;2024-03-06T00:58:02;95381.16;;;6.41;73.75
32197;BME280;18697;42.770;23.400;2024-03-06T01:00:29;95382.34;;;6.65;73.95
32197;BME280;18697;42.770;23.400;2024-03-06T01:02:54;95370.34;;;6.81;73.19
32197;BME280;18697;42.770;23.400;2024-03-06T01:05:20;95370.66;;;6.61;73.77
32197;BME280;18697;42.770;23.400;2024-03-06T01:07:45;95372.63;;;6.61;73.30
32197;BME280;18697;42.770;23.400;2024-03-06T01:10:10;95372.88;;;6.41;74.95
32197;BME280;18697;42.770;23.400;2024-03-06T01:12:36;95367.03;;;6.26;75.03
32197;BME280;18697;42.770;23.400;2024-03-06T01:15:02;95376.63;;;5.96;76.28
32197;BME280;18697;42.770;23.400;2024-03-06T01:17:28;95369.78;;;6.13;75.88
32197;BME280;18697;42.770;23.400;2024-03-06T01:19:54;95380.06;;;6.13;76.12
32197;BME280;18697;42.770;23.400;2024-03-06T01:22:19;95384.13;;;6.34;75.82
32197;BME280;18697;42.770;23.400;2024-03-06T01:24:45;95379.94;;;6.42;75.16
32197;BME280;18697;42.770;23.400;2024-03-06T01:27:10;95387.66;;;6.47;75.22
32197;BME280;18697;42.770;23.400;2024-03-06T01:29:35;95388.53;;;6.56;74.69
32197;BME280;18697;42.770;23.400;2024-03-06T01:32:01;95385.00;;;6.56;74.17
32197;BME280;18697;42.770;23.400;2024-03-06T01:34:27;95387.88;;;6.65;73.96
32197;BME280;18697;42.770;23.400;2024-03-06T01:36:52;95385.88;;;6.66;73.46
32197;BME280;18697;42.770;23.400;2024-03-06T01:39:18;95392.50;;;6.68;72.79
32197;BME280;18697;42.770;23.400;2024-03-06T01:41:47;95395.56;;;6.70;72.92
32197;BME280;18697;42.770;23.400;2024-03-06T01:44:14;95392.69;;;6.74;72.61
32197;BME280;18697;42.770;23.400;2024-03-06T01:46:39;95396.66;;;6.73;72.10
32197;BME280;18697;42.770;23.400;2024-03-06T01:49:05;95387.66;;;6.59;71.68
32197;BME280;18697;42.770;23.400;2024-03-06T01:51:32;95384.56;;;6.45;72.04
32197;BME280;18697;42.770;23.400;2024-03-06T01:53:57;95386.44;;;6.22;72.94
32197;BME280;18697;42.770;23.400;2024-03-06T01:56:26;95395.16;;;6.08;73.48
32197;BME280;18697;42.770;23.400;2024-03-06T01:58:53;95395.28;;;6.05;73.69
32197;BME280;18697;42.770;23.400;2024-03-06T02:01:19;95394.16;;;6.02;73.53
32197;BME280;18697;42.770;23.400;2024-03-06T02:03:47;95380.97;;;5.68;75.11
32197;BME280;18697;42.770;23.400;2024-03-06T02:06:14;95389.75;;;5.50;76.66
32197;BME280;18697;42.770;23.400;2024-03-06T02:08:40;95397.72;;;5.32;77.88
32197;BME280;18697;42.770;23.400;2024-03-06T02:11:06;95403.34;;;5.28;78.55
32197;BME280;18697;42.770;23.400;2024-03-06T02:13:33;95406.78;;;5.33;79.67
32197;BME280;18697;42.770;23.400;2024-03-06T02:15:58;95412.28;;;5.33;79.31
32197;BME280;18697;42.770;23.400;2024-03-06T02:18:24;95412.19;;;5.36;79.42
32197;BME280;18697;42.770;23.400;2024-03-06T02:20:49;95403.91;;;5.36;79.88
32197;BME280;18697;42.770;23.400;2024-03-06T02:23:16;95412.09;;;5.40;79.75
32197;BME280;18697;42.770;23.400;2024-03-06T02:25:43;95408.56;;;5.39;79.49
32197;BME280;18697;42.770;23.400;2024-03-06T02:28:08;95425.22;;;5.48;79.32
32197;BME280;18697;42.770;23.400;2024-03-06T02:30:34;95417.53;;;5.56;79.09
32197;BME280;18697;42.770;23.400;2024-03-06T02:33:07;95410.72;;;5.60;78.51
32197;BME280;18697;42.770;23.400;2024-03-06T02:35:32;95402.03;;;5.62;78.36
32197;BME280;18697;42.770;23.400;2024-03-06T02:38:02;95408.78;;;5.74;78.21
32197;BME280;18697;42.770;23.400;2024-03-06T02:40:30;95409.25;;;5.85;77.99
32197;BME280;18697;42.770;23.400;2024-03-06T02:42:55;95412.25;;;5.90;77.47
32197;BME280;18697;42.770;23.400;2024-03-06T02:45:21;95419.06;;;5.99;77.50
32197;BME280;18697;42.770;23.400;2024-03-06T02:47:47;95414.22;;;6.03;77.26
32197;BME280;18697;42.770;23.400;2024-03-06T02:50:12;95414.91;;;6.19;76.98
32197;BME280;18697;42.770;23.400;2024-03-06T02:52:39;95418.44;;;6.33;76.51
32197;BME280;18697;42.770;23.400;2024-03-06T02:55:05;95416.13;;;6.44;76.10
32197;BME280;18697;42.770;23.400;2024-03-06T02:57:30;95420.66;;;6.50;75.21
32197;BME280;18697;42.770;23.400;2024-03-06T02:59:59;95424.28;;;6.60;75.02
32197;BME280;18697;42.770;23.400;2024-03-06T03:02:25;95416.34;;;6.62;74.70
32197;BME280;18697;42.770;23.400;2024-03-06T03:04:51;95409.50;;;6.54;73.34
32197;BME280;18697;42.770;23.400;2024-03-06T03:07:18;95411.81;;;6.55;73.26
32197;BME280;18697;42.770;23.400;2024-03-06T03:09:45;95418.44;;;6.07;75.21
32197;BME280;18697;42.770;23.400;2024-03-06T03:12:10;95424.50;;;6.02;76.31
32197;BME280;18697;42.770;23.400;2024-03-06T03:14:36;95416.22;;;6.02;75.89
32197;BME280;18697;42.770;23.400;2024-03-06T03:17:02;95427.03;;;6.09;75.69
32197;BME280;18697;42.770;23.400;2024-03-06T03:19:28;95420.31;;;6.10;75.84
32197;BME280;18697;42.770;23.400;2024-03-06T03:21:54;95425.72;;;6.26;75.08
32197;BME280;18697;42.770;23.400;2024-03-06T03:24:20;95424.59;;;6.11;75.50
32197;BME280;18697;42.770;23.400;2024-03-06T03:26:46;95422.31;;;6.22;74.79
32197;BME280;18697;42.770;23.400;2024-03-06T03:29:12;95416.91;;;6.32;74.51
32197;BME280;18697;42.770;23.400;2024-03-06T03:31:37;95421.88;;;6.37;74.16
32197;BME280;18697;42.770;23.400;2024-03-06T03:34:04;95425.16;;;6.19;74.08
32197;BME280;18697;42.770;23.400;2024-03-06T03:36:30;95427.06;;;6.22;74.65
32197;BME280;18697;42.770;23.400;2024-03-06T03:38:55;95427.59;;;6.30;74.80
32197;BME280;18697;42.770;23.400;2024-03-06T03:41:20;95428.28;;;6.34;75.07
32197;BME280;18697;42.770;23.400;2024-03-06T03:43:46;95422.31;;;6.35;75.36
32197;BME280;18697;42.770;23.400;2024-03-06T03:46:11;95427.28;;;6.40;74.20
32197;BME280;18697;42.770;23.400;2024-03-06T03:48:37;95435.00;;;6.33;73.89
32197;BME280;18697;42.770;23.400;2024-03-06T03:51:03;95433.00;;;6.33;73.78
32197;BME280;18697;42.770;23.400;2024-03-06T03:53:35;95436.22;;;6.32;74.20
32197;BME280;18697;42.770;23.400;2024-03-06T03:56:01;95440.31;;;6.40;74.33
32197;BME280;18697;42.770;23.400;2024-03-06T03:58:26;95447.69;;;6.43;74.57
32197;BME280;18697;42.770;23.400;2024-03-06T04:00:52;95439.03;;;5.61;76.28
32197;BME280;18697;42.770;23.400;2024-03-06T04:03:21;95446.22;;;6.00;75.63
32197;BME280;18697;42.770;23.400;2024-03-06T04:05:50;95454.28;;;6.07;75.58
32197;BME280;18697;42.770;23.400;2024-03-06T04:08:15;95449.19;;;6.06;75.48
32197;BME280;18697;42.770;23.400;2024-03-06T04:10:44;95448.31;;;6.09;75.94
32197;BME280;18697;42.770;23.400;2024-03-06T04:13:14;95449.75;;;6.01;75.41
32197;BME280;18697;42.770;23.400;2024-03-06T04:15:40;95452.91;;;5.86;75.69
32197;BME280;18697;42.770;23.400;2024-03-06T04:18:05;95455.59;;;5.90;75.89
32197;BME280;18697;42.770;23.400;2024-03-06T04:20:31;95458.50;;;5.83;76.22
32197;BME280;18697;42.770;23.400;2024-03-06T04:22:56;95467.66;;;5.80;76.36
32197;BME280;18697;42.770;23.400;2024-03-06T04:25:22;95454.97;;;5.82;77.02
32197;BME280;18697;42.770;23.400;2024-03-06T04:27:49;95464.19;;;5.92;76.70
32197;BME280;18697;42.770;23.400;2024-03-06T04:30:14;95466.50;;;5.93;76.69
32197;BME280;18697;42.770;23.400;2024-03-06T04:32:39;95471.78;;;6.01;77.11
32197;BME280;18697;42.770;23.400;2024-03-06T04:35:05;95475.88;;;6.09;76.96
32197;BME280;18697;42.770;23.400;2024-03-06T04:37:30;95477.97;;;6.05;77.01
32197;BME280;18697;42.770;23.400;2024-03-06T04:39:58;95475.13;;;6.08;77.11
32197;BME280;18697;42.770;23.400;2024-03-06T04:42:23;95485.84;;;6.19;77.08
32197;BME280;18697;42.770;23.400;2024-03-06T04:44:49;95483.38;;;6.08;77.39
32197;BME280;18697;42.770;23.400;2024-03-06T04:47:14;95489.78;;;6.05;77.75
32197;BME280;18697;42.770;23.400;2024-03-06T04:49:39;95482.72;;;6.04;78.42
32197;BME280;18697;42.770;23.400;2024-03-06T04:52:05;95488.81;;;6.12;78.69
32197;BME280;18697;42.770;23.400;2024-03-06T04:54:30;95482.50;;;6.11;78.50
32197;BME280;18697;42.770;23.400;2024-03-06T04:56:56;95484.41;;;6.14;78.20
32197;BME280;18697;42.770;23.400;2024-03-06T04:59:21;95477.88;;;6.08;77.08
32197;BME280;18697;42.770;23.400;2024-03-06T05:01:46;95491.31;;;6.06;76.98
32197;BME280;18697;42.770;23.400;2024-03-06T05:04:12;95498.59;;;6.00;76.68
32197;BME280;18697;42.770;23.400;2024-03-06T05:06:38;95491.31;;;5.93;77.21
32197;BME280;18697;42.770;23.400;2024-03-06T05:09:03;95488.44;;;5.97;76.35
32197;BME280;18697;42.770;23.400;2024-03-06T05:11:29;95489.44;;;5.90;76.04
32197;BME280;18697;42.770;23.400;2024-03-06T05:13:57;95494.88;;;5.78;76.35
32197;BME280;18697;42.770;23.400;2024-03-06T05:16:22;95491.16;;;6.26;83.00
32197;BME280;18697;42.770;23.400;2024-03-06T05:18:49;95501.88;;;5.95;78.45
32197;BME280;18697;42.770;23.400;2024-03-06T05:21:14;95504.97;;;5.97;80.25
32197;BME280;18697;42.770;23.400;2024-03-06T05:23:40;95503.38;;;6.12;79.65
32197;BME280;18697;42.770;23.400;2024-03-06T05:26:05;95501.47;;;6.09;75.89
32197;BME280;18697;42.770;23.400;2024-03-06T05:28:31;95502.34;;;6.06;75.33
32197;BME280;18697;42.770;23.400;2024-03-06T05:30:56;95506.31;;;6.05;75.38
32197;BME280;18697;42.770;23.400;2024-03-06T05:33:22;95506.41;;;6.02;75.49
32197;BME280;18697;42.770;23.400;2024-03-06T05:35:47;95507.59;;;5.88;76.36
32197;BME280;18697;42.770;23.400;2024-03-06T05:38:12;95510.38;;;6.01;76.49
32197;BME280;18697;42.770;23.400;2024-03-06T05:40:38;95519.53;;;5.98;75.85
32197;BME280;18697;42.770;23.400;2024-03-06T05:43:05;95519.44;;;6.01;76.75
32197;BME280;18697;42.770;23.400;2024-03-06T05:45:31;95518.63;;;5.88;77.11
32197;BME280;18697;42.770;23.400;2024-03-06T05:47:56;95532.34;;;6.04;77.15
32197;BME280;18697;42.770;23.400;2024-03-06T05:50:21;95529.38;;;6.11;77.25
32197;BME280;18697;42.770;23.400;2024-03-06T05:52:47;95528.31;;;6.21;77.48
32197;BME280;18697;42.770;23.400;2024-03-06T05:55:13;95529.78;;;6.39;77.69
32197;BME280;18697;42.770;23.400;2024-03-06T05:57:38;95532.53;;;6.39;77.10
32197;BME280;18697;42.770;23.400;2024-03-06T06:00:04;95530.47;;;6.43;77.58
32197;BME280;18697;42.770;23.400;2024-03-06T06:02:35;95533.25;;;6.55;77.55
32197;BME280;18697;42.770;23.400;2024-03-06T06:05:01;95535.34;;;6.64;77.42
32197;BME280;18697;42.770;23.400;2024-03-06T06:07:26;95522.19;;;6.55;76.68
32197;BME280;18697;42.770;23.400;2024-03-06T06:09:52;95520.53;;;6.58;77.17
32197;BME280;18697;42.770;23.400;2024-03-06T06:12:17;95532.00;;;6.69;77.11
32197;BME280;18697;42.770;23.400;2024-03-06T06:14:43;95533.19;;;6.30;78.91
32197;BME280;18697;42.770;23.400;2024-03-06T06:17:09;95531.78;;;6.51;78.81
32197;BME280;18697;42.770;23.400;2024-03-06T06:19:34;95534.69;;;6.60;78.42
32197;BME280;18697;42.770;23.400;2024-03-06T06:21:59;95537.66;;;6.66;78.44
32197;BME280;18697;42.770;23.400;2024-03-06T06:24:25;95529.91;;;6.73;78.09
32197;BME280;18697;42.770;23.400;2024-03-06T06:26:51;95535.88;;;6.84;77.58
32197;BME280;18697;42.770;23.400;2024-03-06T06:29:17;95540.88;;;6.64;78.07
32197;BME280;18697;42.770;23.400;2024-03-06T06:31:42;95549.56;;;6.50;79.42
32197;BME280;18697;42.770;23.400;2024-03-06T06:34:08;95541.81;;;6.32;80.49
32197;BME280;18697;42.770;23.400;2024-03-06T06:36:33;95535.75;;;6.50;79.67
32197;BME280;18697;42.770;23.400;2024-03-06T06:38:58;95537.09;;;6.58;79.35
32197;BME280;18697;42.770;23.400;2024-03-06T06:41:24;95544.59;;;6.70;79.52
32197;BME280;18697;42.770;23.400;2024-03-06T06:43:50;95535.88;;;6.72;79.02
32197;BME280;18697;42.770;23.400;2024-03-06T06:46:17;95539.53;;;6.81;78.98
32197;BME280;18697;42.770;23.400;2024-03-06T06:48:43;95545.81;;;6.82;78.76
32197;BME280;18697;42.770;23.400;2024-03-06T06:51:09;95545.94;;;6.78;79.13
32197;BME280;18697;42.770;23.400;2024-03-06T06:53:34;95549.03;;;6.80;79.65
32197;BME280;18697;42.770;23.400;2024-03-06T06:55:59;95541.94;;;6.92;79.78
32197;BME280;18697;42.770;23.400;2024-03-06T06:58:25;95545.59;;;6.89;79.66
32197;BME280;18697;42.770;23.400;2024-03-06T07:00:53;95552.56;;;7.06;80.14
32197;BME280;18697;42.770;23.400;2024-03-06T07:03:19;95547.91;;;7.16;80.12
32197;BME280;18697;42.770;23.400;2024-03-06T07:05:46;95541.81;;;7.21;79.43
32197;BME280;18697;42.770;23.400;2024-03-06T07:08:12;95535.09;;;7.22;79.31
32197;BME280;18697;42.770;23.400;2024-03-06T07:10:37;95540.84;;;7.15;79.52
32197;BME280;18697;42.770;23.400;2024-03-06T07:13:03;95544.16;;;6.84;81.73
32197;BME280;18697;42.770;23.400;2024-03-06T07:15:30;95534.31;;;6.71;81.81
32197;BME280;18697;42.770;23.400;2024-03-06T07:17:55;95540.97;;;6.86;82.56
32197;BME280;18697;42.770;23.400;2024-03-06T07:20:20;95538.63;;;6.84;82.96
32197;BME280;18697;42.770;23.400;2024-03-06T07:22:46;95549.03;;;7.06;83.10
32197;BME280;18697;42.770;23.400;2024-03-06T07:25:12;95550.13;;;7.21;82.60
32197;BME280;18697;42.770;23.400;2024-03-06T07:27:37;95549.66;;;7.35;81.70
32197;BME280;18697;42.770;23.400;2024-03-06T07:30:03;95551.16;;;7.49;80.49
32197;BME280;18697;42.770;23.400;2024-03-06T07:32:28;95546.22;;;7.31;80.55
32197;BME280;18697;42.770;23.400;2024-03-06T07:34:54;95546.13;;;7.22;81.19
32197;BME280;18697;42.770;23.400;2024-03-06T07:37:19;95540.63;;;6.97;82.93
32197;BME280;18697;42.770;23.400;2024-03-06T07:39:44;95552.75;;;7.24;82.31
32197;BME280;18697;42.770;23.400;2024-03-06T07:42:10;95545.72;;;7.58;80.96
32197;BME280;18697;42.770;23.400;2024-03-06T07:44:36;95544.78;;;7.74;79.81
32197;BME280;18697;42.770;23.400;2024-03-06T07:47:02;95547.09;;;7.75;79.37
32197;BME280;18697;42.770;23.400;2024-03-06T07:49:28;95547.47;;;7.65;80.45
32197;BME280;18697;42.770;23.400;2024-03-06T07:51:53;95545.22;;;7.72;80.46
32197;BME280;18697;42.770;23.400;2024-03-06T07:54:18;95549.94;;;7.84;79.99
32197;BME280;18697;42.770;23.400;2024-03-06T07:56:44;95539.91;;;8.21;78.70
32197;BME280;18697;42.770;23.400;2024-03-06T07:59:09;95531.88;;;7.93;79.22
32197;BME280;18697;42.770;23.400;2024-03-06T08:01:37;95531.44;;;7.94;80.19
32197;BME280;18697;42.770;23.400;2024-03-06T08:04:03;95545.88;;;8.33;79.43
32197;BME280;18697;42.770;23.400;2024-03-06T08:06:28;95532.53;;;8.62;78.63
32197;BME280;18697;42.770;23.400;2024-03-06T08:08:54;95538.44;;;8.73;77.33
32197;BME280;18697;42.770;23.400;2024-03-06T08:11:20;95550.84;;;9.00;76.54
32197;BME280;18697;42.770;23.400;2024-03-06T08:13:48;95551.63;;;9.59;74.69
32197;BME280;18697;42.770;23.400;2024-03-06T08:16:14;95546.81;;;9.41;73.95
32197;BME280;18697;42.770;23.400;2024-03-06T08:18:39;95549.97;;;9.88;72.82
32197;BME280;18697;42.770;23.400;2024-03-06T08:21:04;95552.75;;;10.34;71.21
32197;BME280;18697;42.770;23.400;2024-03-06T08:23:31;95544.50;;;10.67;70.01
32197;BME280;18697;42.770;23.400;2024-03-06T08:25:57;95543.63;;;11.03;68.28
32197;BME280;18697;42.770;23.400;2024-03-06T08:28:22;95541.75;;;11.90;66.50
32197;BME280;18697;42.770;23.400;2024-03-06T08:30:47;95529.69;;;11.93;64.59
32197;BME280;18697;42.770;23.400;2024-03-06T08:33:13;95529.72;;;12.08;63.70
32197;BME280;18697;42.770;23.400;2024-03-06T08:35:39;95527.03;;;12.52;63.78
32197;BME280;18697;42.770;23.400;2024-03-06T08:38:05;95529.59;;;12.70;62.01
32197;BME280;18697;42.770;23.400;2024-03-06T08:40:31;95528.16;;;13.04;60.74
32197;BME280;18697;42.770;23.400;2024-03-06T08:42:57;95517.84;;;13.25;59.59
32197;BME280;18697;42.770;23.400;2024-03-06T08:45:22;95527.00;;;13.46;59.26
32197;BME280;18697;42.770;23.400;2024-03-06T08:47:50;95526.56;;;13.68;59.41
32197;BME280;18697;42.770;23.400;2024-03-06T08:50:19;95528.13;;;13.54;59.23
32197;BME280;18697;42.770;23.400;2024-03-06T08:52:45;95526.25;;;13.45;59.33
32197;BME280;18697;42.770;23.400;2024-03-06T08:55:10;95531.47;;;13.38;58.96
32197;BME280;18697;42.770;23.400;2024-03-06T08:57:36;95523.44;;;12.96;60.35
32197;BME280;18697;42.770;23.400;2024-03-06T09:00:03;95522.66;;;13.10;61.53
32197;BME280;18697;42.770;23.400;2024-03-06T09:02:29;95527.00;;;13.26;60.17
32197;BME280;18697;42.770;23.400;2024-03-06T09:04:56;95526.03;;;13.49;60.34
32197;BME280;18697;42.770;23.400;2024-03-06T09:07:21;95524.09;;;13.55;60.31
32197;BME280;18697;42.770;23.400;2024-03-06T09:09:50;95519.28;;;13.56;59.92
32197;BME280;18697;42.770;23.400;2024-03-06T09:12:18;95523.72;;;14.03;59.61
32197;BME280;18697;42.770;23.400;2024-03-06T09:14:44;95525.13;;;14.39;58.26
32197;BME280;18697;42.770;23.400;2024-03-06T09:17:12;95525.22;;;14.70;57.17
32197;BME280;18697;42.770;23.400;2024-03-06T09:19:41;95524.34;;;14.59;56.37
32197;BME280;18697;42.770;23.400;2024-03-06T09:22:07;95511.84;;;14.54;57.68
32197;BME280;18697;42.770;23.400;2024-03-06T09:24:33;95513.06;;;14.27;57.16
32197;BME280;18697;42.770;23.400;2024-03-06T09:27:00;95515.47;;;14.60;56.56
32197;BME280;18697;42.770;23.400;2024-03-06T09:29:26;95505.56;;;14.91;55.90
32197;BME280;18697;42.770;23.400;2024-03-06T09:31:51;95507.13;;;14.97;55.08
32197;BME280;18697;42.770;23.400;2024-03-06T09:34:17;95491.03;;;15.18;55.16
32197;BME280;18697;42.770;23.400;2024-03-06T09:36:46;95502.13;;;15.07;54.80
32197;BME280;18697;42.770;23.400;2024-03-06T09:39:13;95501.13;;;14.27;56.40
32197;BME280;18697;42.770;23.400;2024-03-06T09:41:45;95491.25;;;14.52;56.80
32197;BME280;18697;42.770;23.400;2024-03-06T09:44:11;95492.66;;;14.41;56.19
32197;BME280;18697;42.770;23.400;2024-03-06T09:46:37;95489.25;;;14.11;57.21
32197;BME280;18697;42.770;23.400;2024-03-06T09:49:03;95489.53;;;14.13;57.52
32197;BME280;18697;42.770;23.400;2024-03-06T09:51:29;95479.47;;;14.68;57.30
32197;BME280;18697;42.770;23.400;2024-03-06T09:53:55;95480.66;;;14.93;55.24
32197;BME280;18697;42.770;23.400;2024-03-06T09:56:21;95473.97;;;15.16;55.85
32197;BME280;18697;42.770;23.400;2024-03-06T09:58:47;95479.63;;;14.90;54.61
32197;BME280;18697;42.770;23.400;2024-03-06T10:01:15;95477.22;;;14.72;56.03
32197;BME280;18697;42.770;23.400;2024-03-06T10:03:42;95478.69;;;14.99;53.60
32197;BME280;18697;42.770;23.400;2024-03-06T10:06:08;95463.66;;;14.96;52.99
32197;BME280;18697;42.770;23.400;2024-03-06T10:08:34;95470.72;;;15.23;52.96
32197;BME280;18697;42.770;23.400;2024-03-06T10:11:00;95459.41;;;15.43;53.02
32197;BME280;18697;42.770;23.400;2024-03-06T10:13:26;95465.53;;;16.01;51.56
32197;BME280;18697;42.770;23.400;2024-03-06T10:16:00;95454.69;;;16.48;51.70
32197;BME280;18697;42.770;23.400;2024-03-06T10:18:32;95446.34;;;15.29;52.11
32197;BME280;18697;42.770;23.400;2024-03-06T10:20:58;95457.34;;;15.87;50.50
32197;BME280;18697;42.770;23.400;2024-03-06T10:23:24;95449.31;;;16.28;50.93
32197;BME280;18697;42.770;23.400;2024-03-06T10:25:50;95447.09;;;16.71;51.04
32197;BME280;18697;42.770;23.400;2024-03-06T10:28:18;95441.50;;;16.82;49.59
32197;BME280;18697;42.770;23.400;2024-03-06T10:30:43;95445.53;;;17.20;47.52
32197;BME280;18697;42.770;23.400;2024-03-06T10:33:13;95450.88;;;17.35;47.27
32197;BME280;18697;42.770;23.400;2024-03-06T10:35:40;95443.22;;;17.35;47.12
32197;BME280;18697;42.770;23.400;2024-03-06T10:38:07;95439.84;;;17.54;46.50
32197;BME280;18697;42.770;23.400;2024-03-06T10:40:37;95432.72;;;17.53;46.05
32197;BME280;18697;42.770;23.400;2024-03-06T10:43:05;95437.63;;;18.04;45.91
32197;BME280;18697;42.770;23.400;2024-03-06T10:48:09;95436.63;;;17.96;43.74
32197;BME280;18697;42.770;23.400;2024-03-06T10:50:41;95424.66;;;17.90;45.86
32197;BME280;18697;42.770;23.400;2024-03-06T10:53:13;95423.94;;;18.31;44.13
32197;BME280;18697;42.770;23.400;2024-03-06T10:55:40;95417.03;;;18.32;44.00
32197;BME280;18697;42.770;23.400;2024-03-06T10:58:07;95413.59;;;18.50;41.63
32197;BME280;18697;42.770;23.400;2024-03-06T11:00:44;95420.50;;;18.85;41.01
32197;BME280;18697;42.770;23.400;2024-03-06T11:03:11;95417.88;;;18.62;40.21
32197;BME280;18697;42.770;23.400;2024-03-06T11:05:44;95403.53;;;18.66;40.96
32197;BME280;18697;42.770;23.400;2024-03-06T11:08:13;95408.56;;;18.37;42.06
32197;BME280;18697;42.770;23.400;2024-03-06T11:10:43;95399.78;;;17.53;42.23
32197;BME280;18697;42.770;23.400;2024-03-06T11:13:24;95387.75;;;18.16;42.59
32197;BME280;18697;42.770;23.400;2024-03-06T11:15:52;95386.22;;;18.15;41.04
32197;BME280;18697;42.770;23.400;2024-03-06T11:23:27;95380.84;;;17.70;42.78
32197;BME280;18697;42.770;23.400;2024-03-06T11:28:24;95375.59;;;17.28;42.44
32197;BME280;18697;42.770;23.400;2024-03-06T11:31:06;95375.31;;;17.42;44.15
32197;BME280;18697;42.770;23.400;2024-03-06T11:33:38;95368.97;;;17.94;42.61
32197;BME280;18697;42.770;23.400;2024-03-06T11:36:24;95380.16;;;17.42;41.24
32197;BME280;18697;42.770;23.400;2024-03-06T11:38:59;95369.09;;;17.72;40.84
32197;BME280;18697;42.770;23.400;2024-03-06T11:41:48;95370.13;;;18.16;40.86
32197;BME280;18697;42.770;23.400;2024-03-06T11:44:16;95376.16;;;18.31;40.28
32197;BME280;18697;42.770;23.400;2024-03-06T11:46:49;95377.41;;;17.94;39.83
32197;BME280;18697;42.770;23.400;2024-03-06T11:49:22;95374.97;;;17.74;41.68
32197;BME280;18697;42.770;23.400;2024-03-06T11:51:50;95351.19;;;17.81;45.00
32197;BME280;18697;42.770;23.400;2024-03-06T11:54:16;95351.75;;;17.68;44.09
32197;BME280;18697;42.770;23.400;2024-03-06T11:56:48;95352.59;;;17.46;44.37
32197;BME280;18697;42.770;23.400;2024-03-06T11:59:15;95343.03;;;17.02;44.68
32197;BME280;18697;42.770;23.400;2024-03-06T12:01:41;95333.13;;;16.62;46.12
32197;BME280;18697;42.770;23.400;2024-03-06T12:04:06;95334.91;;;16.43;46.65
32197;BME280;18697;42.770;23.400;2024-03-06T12:06:33;95344.72;;;15.55;47.69
32197;BME280;18697;42.770;23.400;2024-03-06T12:08:59;95332.50;;;14.98;50.54
32197;BME280;18697;42.770;23.400;2024-03-06T12:11:24;95338.00;;;14.82;53.07
32197;BME280;18697;42.770;23.400;2024-03-06T12:13:54;95343.31;;;14.74;54.18
32197;BME280;18697;42.770;23.400;2024-03-06T12:16:19;95333.75;;;14.55;57.06
32197;BME280;18697;42.770;23.400;2024-03-06T12:18:45;95342.94;;;14.29;58.31
32197;BME280;18697;42.770;23.400;2024-03-06T12:21:11;95338.25;;;14.15;58.96
32197;BME280;18697;42.770;23.400;2024-03-06T12:23:39;95339.59;;;13.94;58.75
32197;BME280;18697;42.770;23.400;2024-03-06T12:26:09;95338.16;;;13.78;58.59
32197;BME280;18697;42.770;23.400;2024-03-06T12:28:36;95356.47;;;13.59;57.96
32197;BME280;18697;42.770;23.400;2024-03-06T12:31:03;95343.97;;;13.28;59.95
32197;BME280;18697;42.770;23.400;2024-03-06T12:33:29;95344.53;;;13.32;59.98
32197;BME280;18697;42.770;23.400;2024-03-06T12:36:05;95339.84;;;13.24;61.92
32197;BME280;18697;42.770;23.400;2024-03-06T12:38:31;95337.72;;;12.98;60.56
32197;BME280;18697;42.770;23.400;2024-03-06T12:40:58;95333.25;;;12.86;61.31
32197;BME280;18697;42.770;23.400;2024-03-06T12:43:24;95336.25;;;13.03;62.48
32197;BME280;18697;42.770;23.400;2024-03-06T12:45:49;95330.53;;;12.92;62.23
32197;BME280;18697;42.770;23.400;2024-03-06T12:48:15;95321.34;;;12.86;62.07
32197;BME280;18697;42.770;23.400;2024-03-06T12:50:40;95326.72;;;13.09;60.19
32197;BME280;18697;42.770;23.400;2024-03-06T12:53:07;95331.13;;;13.16;60.17
32197;BME280;18697;42.770;23.400;2024-03-06T12:55:33;95328.88;;;13.00;61.54
32197;BME280;18697;42.770;23.400;2024-03-06T12:57:58;95322.13;;;13.06;62.49
32197;BME280;18697;42.770;23.400;2024-03-06T13:00:23;95321.56;;;13.02;63.00
32197;BME280;18697;42.770;23.400;2024-03-06T13:02:50;95327.75;;;13.12;62.72
32197;BME280;18697;42.770;23.400;2024-03-06T13:05:18;95322.84;;;13.22;62.33